Clinton, MO (64735)

5:48 PM CDT on August 30, 2014 (GMT -0500)
Clinton Memorial | Change Station
CLOSE
Current Station
Airport
Location: Clinton,
Elevation: 823 ft
Nearby Weather Stations

Elev 823 ft 38.36 °N, 93.68 °W | Updated 13 minutes ago

Clear
Clear
88 °F
Feels Like 90 °F
N
0
Wind Variable Wind from North

Today
High -- | Low -- °F
--% Chance of Precip.
Yesterday
High -- | Low -- °F
Precip. -- in
6:42 AM 7:48 PM
Waxing Crescent, 25% visible
Pressure 29.88 in
Visibility 10.0 miles
Clouds Clear
Heat Index 90 °F
Dew Point 66 °F
Humidity 49%
Rainfall 0.06 in
Snow Depth Not available.
UV 2 out of 12
Pollen 10.00 out of 12
Air Quality Not available.
Flu Activity Not available.
METAR KGLY 302235Z AUTO 00000KT 10SM CLR 31/19 A2988 RMK AO2

More Conditions Fewer Conditions

Pressure 29.88 in
Visibility 10.0 miles
Clouds Clear
Heat Index 90 °F
Dew Point 66 °F
Humidity 49%
Rainfall 0.06 in
Snow Depth Not available.
UV 2 out of 12
Pollen 10.00 out of 12
Air Quality Not available.
Flu Activity Not available.
METAR KGLY 302235Z AUTO 00000KT 10SM CLR 31/19 A2988 RMK AO2

More Conditions Fewer Conditions

10-Day Weather Forecast

Almanac

Astronomy

Aug. 30, 2014 Rise Set
Actual Time 6:42 AM CDT 7:48 PM CDT
Civil Twilight 6:15 AM CDT 8:15 PM CDT
Nautical Twilight 5:43 AM CDT 8:47 PM CDT
Astronomical Twilight 5:09 AM CDT 9:21 PM CDT
Moon 11:26 AM CDT 10:27 PM CDT
Length of Visible Light 13h 59m
Length of Day
13h 05m
Tomorrow will be 2m 23s shorter.
Waxing Crescent, 25% of the Moon is Illuminated
Today
Waxing Crescent
Sep 2
First Quarter
Sep 8
Full
Sep 15
Last Quarter
Sep 24
New

Today's Extremes

State Highs State Lows

Community

WunderPhotos

Upload Photos

1,748,663 photos uploaded!

WunderBlogs® & News

Nearby

Snow Depth

Station Depth Elevation
No new snow has been reported.

Earthquake Activity

City Distance Mag. Time & Date
No recent earthquake activity has been reported nearby.
Minimum magnitude displayed is 2.5.

Coastal Water Temperatures

Place Temperature
No Stations Reporting

Nearby Weather Stations